Ocean Beach, New York
Current Conditions -  °F | °C
As of 5:56 PM on Sunday 21 Dec 2014 (Local Time) from KISP Reporting Station
Drizzle Drizzle  
Wind Chill: 29°   Ceiling: 700
Heat Index: 36°   Visibility: 10mi
Dew Point: 32°   Wind: 9mph
Humidity: 86%   Direction: 340°NNW
Pressure: 30.28"   Gusts: NA
Location:  40.65°N, 73.16°W
Report Text: KISP 212256Z 34008KT 10SM -DZ OVC007 02/00 A3028 RMK AO2 DZB51 SLP254 P0000 T00220000
Loading
Personal Weather Stations






























Interactive Weather Map New forecast layout! Learn more

10-Day Weather Forecast

Advertisements
Track Severe Weather on mobile